Tiempo atmosférico en la estación meteorológica de Valsequillo, Córdoba (575 m.)



Fecha
DESCASC
Temp. máxima en grados centígrados (hora)
DESCASC
Temp. mínima en grados centígrados (hora)
DESCASC
Temp. media en grados centígrados
DESCASC
Racha de viento máxima en m/sg (hora)
DESCASC
Velocidad máxima media en intervalos de 10 minutos(hora)
DESCASC
Precipitaciones diarias en mm
DESCASC
Precipitaciones de 00:00 a 06:00 en mm
DESCASC
Precipitaciones de 06:00 a 12:00 en mm
DESCASC
Precipitaciones de 12:00 a 18:00 en mm
DESCASC
Precipitaciones de 18:00 a 24:00 en mm
DESCASC
08-12-2019 14.4 (15:50) 1.6 (04:10) 8 4.44 (15:50) 3.33 (15:50) 0.2 0 0.2 0 0
07-12-2019 12.2 (16:40) 2.2 (08:00) 7.2 4.17 (14:40) 2.22 (14:30) 0.2 0 0.2 0 0
06-12-2019 13.9 (15:10) 4 (05:50) 8.9 6.39 (14:10) 3.89 (14:10) 0 0 0 0 0
05-12-2019 11.9 (15:40) 6.8 (00:00) 9.3 10.83 (13:20) 6.39 (13:20) 0 0 0 0 0
04-12-2019 11.1 (17:20) 5.9 (00:00) 8.5 5.56 (21:30) 3.61 (18:20) 3 3 0 0 0
03-12-2019 12.2 (13:10) 6.4 (00:00) 9.3 9.44 (11:00) 6.11 (11:10) 0 0 0 0 0
02-12-2019 12.5 (15:00) 7 (00:00) 9.8 11.39 (12:40) 6.94 (15:40) 1.6 1.6 0 0 0
01-12-2019 10.5 (14:00) 6.7 (00:00) 8.6 8.89 (13:00) 5.28 (14:10) 10.2 0.2 0.6 7.8 1.6
30-11-2019 15.2 (12:10) 7.9 (00:00) 11.5 9.17 (22:50) 6.39 (22:40) 1 0 0 0 1
29-11-2019 16.2 (16:10) 8.6 (00:00) 12.4 5.56 (05:10) 3.61 (14:10) 0 0 0 0 0
28-11-2019 14.6 (16:20) 7.5 (00:00) 11.1 5.83 (16:40) 4.44 (16:40) 0 0 0 0 0
27-11-2019 14.2 (14:40) 8.7 (00:00) 11.4 10.28 (13:00) 6.94 (14:20) 0.6 0 0 0.6 0
26-11-2019 14.8 (16:30) 10.3 (00:00) 12.6 10.56 (18:20) 6.94 (23:50) 1.8 0 0 0 1.8
25-11-2019 16.6 (15:10) 9.4 (00:00) 13 10.83 (14:50) 8.33 (14:50) 1.4 0.4 0.8 0.2 0
24-11-2019 12.5 (15:30) 3.6 (00:00) 8 9.17 (12:50) 6.11 (10:20) 0 0 0 0 0
23-11-2019 12 (15:50) 6.5 (00:00) 9.3 15.28 (11:30) 10.28 (11:30) 2.8 2.8 0 0 0
22-11-2019 13.8 (17:40) 9.2 (00:00) 11.5 14.72 (17:00) 9.72 (22:30) 15 0 3 12 0
21-11-2019 11.4 (16:10) 7.4 (00:00) 9.4 6.39 (12:10) 3.61 (12:10) 1.8 0.2 0.4 1 0.2
20-11-2019 7.8 (16:00) 3.2 (00:00) 5.5 7.78 (11:50) 4.72 (11:50) 6.4 0 4 2.2 0.2
19-11-2019 12.1 (16:10) 1.4 (00:00) 6.8 5 (14:30) 3.06 (14:30) 0 0 0 0 0
18-11-2019 12.1 (15:10) 3.5 (00:00) 7.8 10.28 (00:30) 7.5 (01:40) 1.6 1.6 0 0 0
17-11-2019 11.5 (20:10) 2.1 (00:00) 6.8 13.33 (22:10) 9.17 (22:10) 13.4 0 1.6 3.4 8.4
16-11-2019 11.8 (16:10) -2.4 (-00:0) 4.7 7.22 (17:30) 5.28 (17:30) 0 0 0 0 0
15-11-2019 9.4 (15:20) 0.9 (00:00) 5.1 11.11 (00:20) 7.78 (01:00) 0 0 0 0 0
14-11-2019 10.8 (15:40) 6.2 (00:00) 8.5 15.56 (11:50) 10.28 (14:10) 1.2 0 1.2 0 0
13-11-2019 18.4 (14:30) 10.1 (00:00) 14.3 12.5 (23:20) 9.44 (23:20) 0.2 0 0.2 0 0
12-11-2019 14.8 (16:00) 4 (00:00) 9.4 10 (23:59) 6.39 (16:30) 0.2 0 0.2 0 0
11-11-2019 14.2 (16:40) 7.4 (23:59) 10.8 8.89 (00:20) 6.67 (00:20) 0 0 0 0 0

Gráficas

Temp. máximas Temp. mínimas Temp. medias Precipitaciones Rachas de viento máximas Velocidades máximas media en intervalos de 10 minutos

Datos horarios

Fecha y hora oficial Temperatura (ºC) Velocidad del viento (km/h) Dirección del viento Racha (km/h) Dirección de racha Precipitación (mm) Presión (hPa) Tendencia (hPa) Humedad (%)
2019-12-10 23:00:00 -- -- -- -- -- -- -- -- --
2019-12-10 22:00:00 -- -- -- -- -- -- -- -- --
2019-12-10 21:00:00 5.8 3 Oeste 4 Oeste 0 -- -- 93
2019-12-10 20:00:00 7.3 0 Calma 4 Sudoeste 0 -- -- 91
2019-12-10 19:00:00 8.7 0 Calma 3 Este 0 -- -- 84
2019-12-10 18:00:00 10.2 0 Calma 7 Nordeste 0 -- -- 79
2019-12-10 17:00:00 12.3 3 Nordeste 9 Este 0 -- -- 71
2019-12-10 16:00:00 12.4 3 Nordeste 10 Este 0 -- -- 67
2019-12-10 15:00:00 12.5 3 Nordeste 13 Este 0 -- -- 69
2019-12-10 14:00:00 11.1 8 Este 16 Este 0 -- -- 77
2019-12-10 13:00:00 9.2 4 Noroeste 8 Noroeste 0 -- -- 88
2019-12-10 12:00:00 6.2 0 Calma 7 Nordeste 0 -- -- 100
2019-12-10 11:00:00 5.2 5 Norte 10 Norte 0 -- -- 100
2019-12-10 10:00:00 4.7 6 Este 12 Este 0 -- -- 100
2019-12-10 09:00:00 4.9 4 Nordeste 11 Norte 0 -- -- 100
2019-12-10 08:00:00 5.4 5 Nordeste 17 Nordeste 0 -- -- 99
2019-12-10 07:00:00 5.7 5 Nordeste 13 Nordeste 0 -- -- 99
2019-12-10 06:00:00 6.1 4 Nordeste 9 Nordeste 0 -- -- 98
2019-12-10 05:00:00 6.8 4 Nordeste 9 Nordeste 0 -- -- 97
2019-12-10 04:00:00 7.2 4 Este 12 Nordeste 0 -- -- 95
2019-12-10 03:00:00 8.2 4 Nordeste 13 Nordeste 0 -- -- 94
2019-12-10 02:00:00 8.4 6 Nordeste 11 Nordeste 0 -- -- 98
2019-12-10 01:00:00 8.4 4 Nordeste 9 Nordeste 0 -- -- 100
2019-12-10 00:00:00 8.1 0 Calma 8 Nordeste 0 -- -- 99
2019-12-09 23:00:00 7 0 Calma 4 Nordeste 0 -- -- 99
2019-12-09 22:00:00 7.2 0 Calma 3 Noroeste 0 -- -- 98
2019-12-09 21:00:00 8.1 0 Calma 4 Nordeste 0 -- -- 96
2019-12-09 20:00:00 9 2 Norte 4 Este 0 -- -- 95
2019-12-09 19:00:00 10 3 Este 10 Sudeste 0 -- -- 94
2019-12-09 18:00:00 10.6 6 Este 13 Este 0 -- -- 93
2019-12-09 17:00:00 10.6 5 Norte 13 Noroeste 0 -- -- 91
2019-12-09 16:00:00 10.8 7 Noroeste 12 Noroeste 0 -- -- 91
2019-12-09 15:00:00 11 4 Norte 10 Noroeste 0 -- -- 91
2019-12-09 14:00:00 11 4 Este 9 Nordeste 0 -- -- 92
2019-12-09 13:00:00 10.9 0 Calma 6 Sudoeste 0 -- -- 92
2019-12-09 12:00:00 10.7 3 Noroeste 10 Oeste 0 -- -- 94
2019-12-09 11:00:00 10.5 4 Noroeste 11 Noroeste 0 -- -- 100
2019-12-09 10:00:00 10.3 5 Norte 9 Noroeste 0 -- -- 100
2019-12-09 09:00:00 10.4 3 Noroeste 6 Noroeste 0 -- -- 100
2019-12-09 08:00:00 10.5 5 Norte 9 Norte 0 -- -- 100
2019-12-09 07:00:00 10.8 9 Norte 14 Norte 0 -- -- 100
2019-12-09 06:00:00 11.1 7 Norte 9 Norte 0 -- -- 100
2019-12-09 05:00:00 10.9 2 Noroeste 7 Oeste 0 -- -- 100
2019-12-09 04:00:00 10.8 4 Oeste 9 Noroeste 0.2 -- -- 100
2019-12-09 03:00:00 10.8 5 Oeste 9 Noroeste 0 -- -- 99
2019-12-09 02:00:00 10.6 4 Noroeste 10 Noroeste 0 -- -- 99
2019-12-09 01:00:00 10.6 5 Noroeste 13 Noroeste 0 -- -- 98
2019-12-09 00:00:00 10.5 3 Norte 5 Norte 0 -- -- 96
2019-12-08 23:00:00 10.5 0 Calma 5 Oeste 0 -- -- 94
2019-12-08 22:00:00 10.5 2 Noroeste 9 Noroeste 0 -- -- 94
2019-12-08 21:00:00 10.6 5 Noroeste 12 Noroeste 0 -- -- 93
2019-12-08 20:00:00 10.4 4 Sudoeste 6 Oeste 0 -- -- 93
2019-12-08 19:00:00 10.8 0 Calma 3 Este 0 -- -- 87
2019-12-08 18:00:00 11.8 2 Noroeste 14 Noroeste 0 -- -- 82
2019-12-08 17:00:00 13.6 8 Noroeste 15 Oeste 0 -- -- 75
2019-12-08 16:00:00 14.4 10 Oeste 16 Oeste 0 -- -- 69
2019-12-08 15:00:00 13.6 6 Sudoeste 13 Sudoeste 0 -- -- 70
2019-12-08 14:00:00 13.7 8 Sudoeste 14 Sudoeste 0 -- -- 75
2019-12-08 13:00:00 12.1 4 Sudoeste 11 Sur 0 -- -- 82
2019-12-08 12:00:00 8.4 7 Sur 11 Sur 0 -- -- 99
2019-12-08 11:00:00 5.8 6 Sur 10 Sur 0 -- -- 100
2019-12-08 10:00:00 3.5 2 Sur 4 Sudeste 0 -- -- 100
2019-12-08 09:00:00 1.9 0 Calma 4 Sur 0.2 -- -- 100
2019-12-08 08:00:00 1.9 0 Calma 2 Sudeste 0 -- -- 100
2019-12-08 07:00:00 2.1 0 Calma 3 Oeste 0 -- -- 100
2019-12-08 06:00:00 1.9 0 Calma 6 Noroeste 0 -- -- 99
2019-12-08 05:00:00 1.6 0 Calma 2 Sudoeste 0 -- -- 99
2019-12-08 04:00:00 1.7 2 Oeste 5 Este 0 -- -- 99
2019-12-08 03:00:00 1.9 0 Calma 3 Oeste 0 -- -- 98
2019-12-08 02:00:00 2.2 0 Calma 3 Oeste 0 -- -- 98
2019-12-08 01:00:00 2.7 0 Calma 2 Sudoeste 0 -- -- 97
2019-12-08 00:00:00 3.8 0 Calma 3 Sudeste 0 -- -- 97
2019-12-07 23:00:00 3.8 0 Calma 2 Noroeste 0 -- -- 95
2019-12-07 22:00:00 4.9 0 Calma 2 Sudoeste 0 -- -- 95
2019-12-07 21:00:00 5.7 3 Oeste 4 Oeste 0 -- -- 95
2019-12-07 20:00:00 6.7 3 Noroeste 5 Noroeste 0 -- -- 92
2019-12-07 19:00:00 8.4 4 Este 8 Este 0 -- -- 87
2019-12-07 18:00:00 10.3 7 Este 9 Este 0 -- -- 81
2019-12-07 17:00:00 12.2 2 Nordeste 9 Nordeste 0 -- -- 77
2019-12-07 16:00:00 11.6 4 Nordeste 11 Este 0 -- -- 82
2019-12-07 15:00:00 10.7 7 Nordeste 15 Este 0 -- -- 85
2019-12-07 14:00:00 10.1 7 Nordeste 13 Nordeste 0 -- -- 88
2019-12-07 13:00:00 8.1 4 Nordeste 9 Este 0 -- -- 98
2019-12-07 12:00:00 6.9 7 Este 11 Este 0 -- -- 100
2019-12-07 11:00:00 6.1 4 Este 8 Este 0 -- -- 100
2019-12-07 10:00:00 4.2 0 Calma 5 Noroeste 0 -- -- 100
2019-12-07 09:00:00 2.6 3 Este 8 Este 0.2 -- -- 100
2019-12-07 08:00:00 2.2 0 Calma 4 Sudeste 0 -- -- 99
2019-12-07 07:00:00 2.7 0 Calma 4 Norte 0 -- -- 98
2019-12-07 06:00:00 3.2 0 Calma 5 Noroeste 0 -- -- 98
2019-12-07 05:00:00 3.3 5 Norte 7 Noroeste 0 -- -- 97
2019-12-07 04:00:00 4.9 2 Sudeste 12 Nordeste 0 -- -- 98
2019-12-07 03:00:00 5.3 6 Este 9 Este 0 -- -- 98
2019-12-07 02:00:00 5.2 2 Este 4 Norte 0 -- -- 97
2019-12-07 01:00:00 6 2 Nordeste 8 Noroeste 0 -- -- 95
2019-12-07 00:00:00 6.3 3 Noroeste 10 Noroeste 0 -- -- 93
2019-12-06 23:00:00 6.8 5 Norte 10 Noroeste 0 -- -- 93
2019-12-06 22:00:00 6.7 2 Nordeste 6 Nordeste 0 -- -- 92
2019-12-06 21:00:00 8 4 Nordeste 8 Norte 0 -- -- 88
2019-12-06 20:00:00 9 5 Nordeste 18 Este 0 -- -- 83
2019-12-06 19:00:00 10.2 9 Nordeste 17 Nordeste 0 -- -- 79
2019-12-06 18:00:00 11.6 8 Norte 17 Nordeste 0 -- -- 73
2019-12-06 17:00:00 13.2 8 Nordeste 19 Nordeste 0 -- -- 67
2019-12-06 16:00:00 13.8 10 Nordeste 20 Nordeste 0 -- -- 67
2019-12-06 15:00:00 13.8 10 Norte 23 Nordeste 0 -- -- 67
2019-12-06 14:00:00 13.1 11 Nordeste 18 Nordeste 0 -- -- 71
2019-12-06 13:00:00 11.7 8 Nordeste 18 Nordeste 0 -- -- 78
2019-12-06 12:00:00 10.1 8 Nordeste 15 Nordeste 0 -- -- 85
2019-12-06 11:00:00 8.2 6 Nordeste 15 Nordeste 0 -- -- 93
2019-12-06 10:00:00 6.2 4 Nordeste 10 Este 0 -- -- 99
2019-12-06 09:00:00 5.2 6 Nordeste 13 Norte 0 -- -- 99
2019-12-06 08:00:00 4.6 2 Nordeste 11 Nordeste 0 -- -- 98
2019-12-06 07:00:00 5.1 4 Nordeste 12 Nordeste 0 -- -- 98
2019-12-06 06:00:00 4.1 3 Este 9 Nordeste 0 -- -- 98
2019-12-06 05:00:00 4.9 0 Calma 11 Nordeste 0 -- -- 96
2019-12-06 04:00:00 5.6 6 Nordeste 12 Este 0 -- -- 97
2019-12-06 03:00:00 6 4 Nordeste 13 Este 0 -- -- 96
2019-12-06 02:00:00 6.2 5 Nordeste 9 Nordeste 0 -- -- 96
2019-12-06 01:00:00 6.7 2 Nordeste 15 Nordeste 0 -- -- 94
2019-12-06 00:00:00 6.9 7 Nordeste 13 Nordeste 0 -- -- 94
2019-12-05 23:00:00 7.6 7 Nordeste 15 Nordeste 0 -- -- 91
2019-12-05 22:00:00 7.7 8 Nordeste 13 Nordeste 0 -- -- 92
2019-12-05 21:00:00 7.3 6 Nordeste 12 Nordeste 0 -- -- 92
2019-12-05 20:00:00 7.9 0 Calma 7 Este 0 -- -- 88
2019-12-05 19:00:00 9.5 6 Nordeste 20 Nordeste 0 -- -- 82
2019-12-05 18:00:00 10.8 8 Nordeste 29 Nordeste 0 -- -- 77
2019-12-05 17:00:00 11.1 13 Nordeste 28 Nordeste 0 -- -- 73
2019-12-05 16:00:00 11.5 14 Nordeste 30 Este 0 -- -- 70
2019-12-05 15:00:00 11.3 16 Nordeste 32 Nordeste 0 -- -- 72
2019-12-05 14:00:00 11.2 20 Nordeste 39 Este 0 -- -- 71
2019-12-05 13:00:00 11.1 14 Nordeste 28 Nordeste 0 -- -- 70
2019-12-05 12:00:00 11.3 10 Nordeste 27 Nordeste 0 -- -- 75
2019-12-05 11:00:00 10.4 13 Nordeste 27 Nordeste 0 -- -- 79
2019-12-05 10:00:00 8.9 11 Nordeste 24 Norte 0 -- -- 85
2019-12-05 09:00:00 7.6 12 Nordeste 18 Norte 0 -- -- 90
2019-12-05 08:00:00 7.6 8 Nordeste 17 Nordeste 0 -- -- 91
2019-12-05 07:00:00 7.9 11 Nordeste 19 Norte 0 -- -- 90
2019-12-05 06:00:00 7.8 6 Nordeste 14 Nordeste 0 -- -- 94
2019-12-05 05:00:00 7 3 Sudoeste 7 Oeste 0 -- -- 96
2019-12-05 04:00:00 7.8 7 Noroeste 10 Norte 0 -- -- 96
2019-12-05 03:00:00 7.8 5 Noroeste 13 Norte 0 -- -- 95
2019-12-05 02:00:00 8.3 6 Norte 9 Norte 0 -- -- 95
2019-12-05 01:00:00 8.3 0 Calma 3 Norte 0 -- -- 94
2019-12-05 00:00:00 8.6 0 Calma 11 Norte 0 -- -- 92
2019-12-04 23:00:00 8.6 6 Norte 14 Norte 0 -- -- 92
2019-12-04 22:00:00 8.6 8 Norte 20 Norte 0 -- -- 92
2019-12-04 21:00:00 8.9 9 Norte 16 Norte 0 -- -- 88
2019-12-04 20:00:00 9.4 11 Norte 19 Nordeste 0 -- -- 85
2019-12-04 19:00:00 9.7 8 Norte 19 Norte 0 -- -- 83
2019-12-04 18:00:00 10.6 8 Norte 16 Norte 0 -- -- 77
2019-12-04 17:00:00 10.9 4 Noroeste 9 Norte 0 -- -- 77
2019-12-04 16:00:00 10.5 8 Norte 13 Noroeste 0 -- -- 77
2019-12-04 15:00:00 10.3 5 Norte 12 Norte 0 -- -- 78
2019-12-04 14:00:00 10.2 8 Norte 16 Este 0 -- -- 80
2019-12-04 13:00:00 9.9 5 Norte 9 Norte 0 -- -- 82
2019-12-04 12:00:00 8.8 4 Nordeste 16 Nordeste 0 -- -- 86
2019-12-04 11:00:00 9.2 3 Sudeste 11 Sudoeste 0 -- -- 82
2019-12-04 10:00:00 6.5 3 Sudoeste 4 Sudoeste 0 -- -- 93
2019-12-04 09:00:00 6 2 Nordeste 8 Este 0 -- -- 95
2019-12-04 08:00:00 5.9 3 Nordeste 10 Nordeste 0 -- -- 94
2019-12-04 07:00:00 6 4 Nordeste 9 Nordeste 0 -- -- 94
2019-12-04 06:00:00 6.2 0 Calma 8 Nordeste 2.8 -- -- 93
2019-12-04 05:00:00 6.9 4 Norte 10 Nordeste 0.2 -- -- 88
2019-12-04 04:00:00 7 4 Nordeste 14 Nordeste 0 -- -- 89
2019-12-04 03:00:00 7.1 5 Nordeste 15 Nordeste 0 -- -- 92
2019-12-04 02:00:00 7.8 8 Nordeste 14 Nordeste 0 -- -- 90
2019-12-04 01:00:00 8 6 Nordeste 12 Nordeste 0 -- -- 90
2019-12-04 00:00:00 8.3 4 Nordeste 10 Nordeste 0 -- -- 88
2019-12-03 23:00:00 7.5 5 Nordeste 11 Nordeste 0 -- -- 92
2019-12-03 22:00:00 8 4 Nordeste 10 Nordeste 0 -- -- 89
2019-12-03 21:00:00 8.9 6 Norte 11 Nordeste 0 -- -- 86
2019-12-03 20:00:00 9.3 6 Nordeste 15 Nordeste 0 -- -- 85
2019-12-03 19:00:00 9.7 5 Nordeste 18 Nordeste 0 -- -- 83
2019-12-03 18:00:00 10.1 10 Nordeste 22 Nordeste 0 -- -- 80
2019-12-03 17:00:00 11.4 10 Nordeste 23 Nordeste 0 -- -- 75
2019-12-03 16:00:00 11.5 16 Nordeste 31 Nordeste 0 -- -- 73
2019-12-03 15:00:00 12 15 Nordeste 27 Nordeste 0 -- -- 71
2019-12-03 14:00:00 12 14 Nordeste 28 Nordeste 0 -- -- 73
2019-12-03 13:00:00 11.9 12 Nordeste 28 Nordeste 0 -- -- 74
2019-12-03 12:00:00 10.7 18 Nordeste 32 Nordeste 0 -- -- 76
2019-12-03 11:00:00 9.4 19 Este 34 Este 0 -- -- 81
2019-12-03 10:00:00 8.1 12 Nordeste 28 Nordeste 0 -- -- 86
2019-12-03 09:00:00 6.5 9 Norte 27 Nordeste 0 -- -- 90
2019-12-03 08:00:00 6.5 15 Nordeste 26 Nordeste 0 -- -- 89
2019-12-03 07:00:00 6.4 8 Norte 18 Nordeste 0 -- -- 89
2019-12-03 06:00:00 6.7 5 Norte 21 Nordeste 0 -- -- 87
2019-12-03 05:00:00 7 12 Nordeste 22 Nordeste 0 -- -- 86
2019-12-03 04:00:00 7.1 13 Nordeste 22 Nordeste 0 -- -- 86
2019-12-03 03:00:00 7.5 10 Nordeste 22 Nordeste 0 -- -- 87
2019-12-03 02:00:00 7.4 10 Nordeste 21 Nordeste 0 -- -- 88
2019-12-03 01:00:00 7.5 8 Nordeste 18 Este 0 -- -- 88
2019-12-03 00:00:00 7.8 9 Nordeste 20 Norte 0 -- -- 88
2019-12-02 23:00:00 8.3 10 Nordeste 18 Nordeste 0 -- -- 87
2019-12-02 22:00:00 8.2 6 Nordeste 23 Nordeste 0 -- -- 87
2019-12-02 21:00:00 8.7 12 Nordeste 23 Nordeste 0 -- -- 87
2019-12-02 20:00:00 8.7 12 Nordeste 26 Nordeste 0 -- -- 87
2019-12-02 19:00:00 9 10 Nordeste 24 Nordeste 0 -- -- 86
2019-12-02 18:00:00 10 12 Nordeste 28 Nordeste 0 -- -- 81
2019-12-02 17:00:00 10.6 16 Nordeste 35 Nordeste 0 -- -- 78
2019-12-02 16:00:00 11.2 19 Nordeste 38 Nordeste 0 -- -- 76
2019-12-02 15:00:00 12.5 18 Nordeste 39 Este 0 -- -- 71
2019-12-02 14:00:00 11.7 23 Nordeste 37 Este 0 -- -- 70
2019-12-02 13:00:00 11.9 21 Nordeste 41 Este 0 -- -- 72
2019-12-02 12:00:00 11 16 Nordeste 39 Nordeste 0 -- -- 81
2019-12-02 11:00:00 9.7 15 Nordeste 30 Nordeste 0 -- -- 87
2019-12-02 10:00:00 8.2 11 Nordeste 20 Nordeste 0 -- -- 96
2019-12-02 09:00:00 7.7 9 Nordeste 22 Nordeste 0 -- -- 98
2019-12-02 08:00:00 7.2 5 Nordeste 17 Nordeste 0 -- -- 98
2019-12-02 07:00:00 7.2 9 Nordeste 19 Nordeste 0 -- -- 98
2019-12-02 06:00:00 7.2 9 Nordeste 18 Nordeste 0.2 -- -- 98
2019-12-02 05:00:00 7 5 Nordeste 10 Este 0 -- -- 97
2019-12-02 04:00:00 7.1 3 Nordeste 15 Este 0.8 -- -- 96
2019-12-02 03:00:00 7.5 9 Este 15 Este 0.6 -- -- 96
2019-12-02 02:00:00 7.8 3 Nordeste 9 Nordeste 0 -- -- 97
2019-12-02 01:00:00 7.9 6 Nordeste 12 Norte 0 -- -- 97
2019-12-02 00:00:00 8.1 3 Nordeste 5 Nordeste 0 -- -- 97
2019-12-01 23:00:00 8.3 3 Nordeste 7 Nordeste 0.2 -- -- 97
2019-12-01 22:00:00 8.4 0 Calma 6 Este 0.4 -- -- 96
2019-12-01 21:00:00 8.3 2 Nordeste 5 Sur 0 -- -- 95
2019-12-01 20:00:00 8.6 2 Sur 19 Sudoeste 0.8 -- -- 93
2019-12-01 19:00:00 9.3 3 Sudoeste 7 Sur 0.2 -- -- 94
2019-12-01 18:00:00 9.7 4 Este 9 Sudoeste 0.2 -- -- 92
2019-12-01 17:00:00 9.9 9 Sudoeste 18 Sudoeste 0 -- -- 90
2019-12-01 16:00:00 9.7 8 Sudoeste 17 Sudoeste 0 -- -- 94
2019-12-01 15:00:00 9.4 13 Sudoeste 29 Sudoeste 7.4 -- -- 89
2019-12-01 14:00:00 10.5 15 Sur 32 Sur 0.2 -- -- 91
2019-12-01 13:00:00 10.2 18 Sur 32 Sur 0 -- -- 91
2019-12-01 12:00:00 10.4 15 Sur 30 Sur 0 -- -- 88
2019-12-01 11:00:00 9.2 14 Sur 25 Sur 0 -- -- 95
2019-12-01 10:00:00 8.1 11 Sur 21 Sur 0.4 -- -- 98
2019-12-01 09:00:00 7.4 8 Sur 14 Sur 0.2 -- -- 99
2019-12-01 08:00:00 7.2 10 Sur 17 Sur 0 -- -- 99
2019-12-01 07:00:00 6.8 4 Sudoeste 17 Sudoeste 0 -- -- 99
2019-12-01 06:00:00 6.9 5 Sudoeste 17 Sudoeste 0.2 -- -- 99
2019-12-01 05:00:00 6.8 8 Sudoeste 12 Oeste 0 -- -- 97
2019-12-01 04:00:00 7.5 3 Oeste 15 Oeste 0 -- -- 95
2019-12-01 03:00:00 8.6 14 Oeste 24 Oeste 0 -- -- 94
2019-12-01 02:00:00 9 13 Oeste 19 Oeste 0 -- -- 96
2019-12-01 01:00:00 9.5 7 Sudoeste 15 Sudoeste 0 -- -- 94
2019-12-01 00:00:00 9.5 13 Oeste 28 Noroeste 0.4 -- -- 95
2019-11-30 23:00:00 10.4 21 Oeste 33 Oeste 0.6 -- -- 95
2019-11-30 22:00:00 12.2 14 Sudoeste 26 Sudoeste 0 -- -- 86
2019-11-30 21:00:00 12.2 13 Sur 25 Sur 0 -- -- 82
2019-11-30 20:00:00 12.4 6 Sur 19 Sur 0 -- -- 81
2019-11-30 19:00:00 12.5 4 Sur 24 Sudoeste 0 -- -- 81
2019-11-30 18:00:00 13.1 18 Sudoeste 26 Oeste 0 -- -- 77
2019-11-30 17:00:00 14.1 17 Oeste 28 Oeste 0 -- -- 74
2019-11-30 16:00:00 14 18 Oeste 27 Oeste 0 -- -- 78
2019-11-30 15:00:00 14.2 17 Oeste 27 Oeste 0 -- -- 80
2019-11-30 14:00:00 14.5 10 Oeste 18 Oeste 0 -- -- 78
2019-11-30 13:00:00 14.5 9 Oeste 14 Sudoeste 0 -- -- 78
2019-11-30 12:00:00 15.1 7 Sudoeste 12 Sudoeste 0 -- -- 75
2019-11-30 11:00:00 13.5 5 Sur 9 Sur 0 -- -- 83
2019-11-30 10:00:00 10.9 4 Sur 10 Sur 0 -- -- 91
2019-11-30 09:00:00 8.4 2 Sur 6 Sudoeste 0 -- -- 97
2019-11-30 08:00:00 8.3 3 Sur 7 Sudoeste 0 -- -- 96
2019-11-30 07:00:00 9.7 0 Calma 5 Sur 0 -- -- 94
2019-11-30 06:00:00 9.7 0 Calma 7 Sudoeste 0 -- -- 95
2019-11-30 05:00:00 9.5 3 Sudoeste 7 Sur 0 -- -- 95
2019-11-30 04:00:00 9.3 2 Sur 5 Sur 0 -- -- 96
2019-11-30 03:00:00 9.2 2 Sudeste 4 Nordeste 0 -- -- 97
2019-11-30 02:00:00 8.6 0 Calma 3 Oeste 0 -- -- 97
2019-11-30 01:00:00 8.1 0 Calma 5 Sudoeste 0 -- -- 94
2019-11-30 00:00:00 8.7 3 Sudoeste 6 Sur 0 -- -- 95
2019-11-29 23:00:00 8.8 0 Calma 4 Sudoeste 0 -- -- 93
2019-11-29 22:00:00 10.1 0 Calma 4 Sudoeste 0 -- -- 90
2019-11-29 21:00:00 11.1 2 Este 5 Sur 0 -- -- 88
2019-11-29 20:00:00 10.7 0 Calma 5 Oeste 0 -- -- 91
2019-11-29 19:00:00 11.9 0 Calma 4 Noroeste 0 -- -- 87
2019-11-29 18:00:00 13.8 3 Noroeste 6 Noroeste 0 -- -- 81
2019-11-29 17:00:00 15.2 8 Noroeste 13 Noroeste 0 -- -- 71
2019-11-29 16:00:00 16 7 Noroeste 18 Oeste 0 -- -- 66
2019-11-29 15:00:00 15.9 13 Oeste 20 Noroeste 0 -- -- 68
2019-11-29 14:00:00 15.5 10 Oeste 18 Oeste 0 -- -- 70
2019-11-29 13:00:00 14.6 12 Oeste 17 Noroeste 0 -- -- 74
2019-11-29 12:00:00 13.3 5 Sur 10 Sur 0 -- -- 84
2019-11-29 11:00:00 11.8 3 Sudoeste 9 Sur 0 -- -- 90
2019-11-29 10:00:00 11.1 4 Sur 10 Sur 0 -- -- 92
2019-11-29 09:00:00 10.1 2 Sudeste 5 Sur 0 -- -- 95
2019-11-29 08:00:00 10.5 2 Sudoeste 8 Sudoeste 0 -- -- 92
2019-11-29 07:00:00 10.9 5 Sudoeste 9 Sudoeste 0 -- -- 92
2019-11-29 06:00:00 11.3 4 Oeste 20 Sudoeste 0 -- -- 90
2019-11-29 05:00:00 11.1 6 Oeste 17 Sudoeste 0 -- -- 91
2019-11-29 04:00:00 11.4 10 Oeste 17 Oeste 0 -- -- 90
2019-11-29 03:00:00 10.3 3 Norte 8 Norte 0 -- -- 94
2019-11-29 02:00:00 10.6 3 Sur 14 Sudoeste 0 -- -- 92
2019-11-29 01:00:00 10.7 0 Calma 8 Sur 0 -- -- 92
2019-11-29 00:00:00 11 3 Sur 10 Sur 0 -- -- 91
2019-11-28 23:00:00 11.2 3 Sudoeste 7 Sudeste 0 -- -- 90
2019-11-28 22:00:00 11.6 2 Sudeste 16 Sur 0 -- -- 88
2019-11-28 21:00:00 11.5 7 Sur 17 Sudoeste 0 -- -- 88
2019-11-28 20:00:00 12.1 8 Sur 17 Sur 0 -- -- 87
2019-11-28 19:00:00 12.6 5 Sudoeste 8 Oeste 0 -- -- 79
2019-11-28 18:00:00 13.3 8 Oeste 15 Oeste 0 -- -- 77
2019-11-28 17:00:00 14.1 10 Oeste 21 Oeste 0 -- -- 72
2019-11-28 16:00:00 14.4 12 Oeste 19 Sudoeste 0 -- -- 72
2019-11-28 15:00:00 13.9 10 Sudoeste 18 Sudoeste 0 -- -- 74
2019-11-28 14:00:00 13.6 14 Oeste 21 Sudoeste 0 -- -- 76
2019-11-28 13:00:00 12.9 12 Sudoeste 20 Sudoeste 0 -- -- 80
2019-11-28 12:00:00 12 11 Sudoeste 19 Oeste 0 -- -- 84
2019-11-28 11:00:00 11.2 5 Sur 15 Sudoeste 0 -- -- 90
2019-11-28 10:00:00 10.3 7 Sudoeste 14 Oeste 0 -- -- 96
2019-11-28 09:00:00 9.1 0 Calma 8 Sudoeste 0 -- -- 97
2019-11-28 08:00:00 8.9 6 Sudoeste 12 Sudoeste 0 -- -- 95
2019-11-28 07:00:00 8.7 6 Sudoeste 12 Sur 0 -- -- 96
2019-11-28 06:00:00 8 3 Sudoeste 6 Sur 0 -- -- 97
2019-11-28 05:00:00 7.6 3 Sudeste 9 Sudoeste 0 -- -- 95
2019-11-28 04:00:00 8.7 6 Sudoeste 10 Sudoeste 0 -- -- 95
2019-11-28 03:00:00 8.9 3 Este 13 Oeste 0 -- -- 92
2019-11-28 02:00:00 8.7 5 Sudoeste 13 Oeste 0 -- -- 95
2019-11-28 01:00:00 8.5 5 Oeste 10 Oeste 0 -- -- 94
2019-11-28 00:00:00 8.7 2 Nordeste 18 Sudoeste 0 -- -- 91
2019-11-27 23:00:00 9.5 13 Sudoeste 19 Oeste 0 -- -- 88
2019-11-27 22:00:00 9.7 12 Sudoeste 15 Sudoeste 0 -- -- 86
2019-11-27 21:00:00 9.2 5 Sudoeste 8 Sudoeste 0 -- -- 89
2019-11-27 20:00:00 9.5 4 Sudoeste 9 Sudoeste 0 -- -- 86
2019-11-27 19:00:00 10.9 6 Oeste 13 Oeste 0 -- -- 80
2019-11-27 18:00:00 12.3 13 Oeste 29 Oeste 0 -- -- 74
2019-11-27 17:00:00 13.9 19 Oeste 28 Oeste 0 -- -- 67
2019-11-27 16:00:00 13.9 21 Oeste 31 Oeste 0 -- -- 69
2019-11-27 15:00:00 14 23 Oeste 31 Oeste 0.2 -- -- 67
2019-11-27 14:00:00 13.2 20 Oeste 32 Oeste 0 -- -- 79
2019-11-27 06:00:00 -- -- -- -- -- -- -- -- --
2019-11-27 05:00:00 11.4 16 Oeste 26 Oeste 0 -- -- 96
2019-11-27 04:00:00 11.2 13 Sudoeste 24 Sur 0 -- -- 93
2019-11-27 03:00:00 10.8 13 Sudoeste 24 Sudoeste 0 -- -- 95
2019-11-27 02:00:00 11.1 11 Sudoeste 27 Sudoeste 0 -- -- 93
2019-11-27 01:00:00 11.8 17 Sudoeste 31 Oeste 0 -- -- 92
2019-11-27 00:00:00 13.2 24 Oeste 36 Sudoeste 0 -- -- 91
2019-11-26 23:00:00 13 14 Sudoeste 31 Sur 0.6 -- -- 97
2019-11-26 22:00:00 13.2 17 Sudoeste 28 Sur 0.2 -- -- 94
2019-11-26 21:00:00 13.2 15 Sudoeste 28 Sur 1 -- -- 94
2019-11-26 20:00:00 13.4 14 Sur 33 Sur 0 -- -- 91
2019-11-26 19:00:00 13.3 21 Sur 38 Sudoeste 0 -- -- 91
2019-11-26 18:00:00 13.8 21 Sur 35 Sur 0 -- -- 87
2019-11-26 17:00:00 14.3 13 Sur 32 Sudoeste 0 -- -- 88
2019-11-26 16:00:00 14.4 15 Sur 30 Sudoeste 0 -- -- 88
2019-11-26 15:00:00 13.7 13 Sur 24 Sur 0 -- -- 95
2019-11-26 14:00:00 13.3 14 Sur 25 Sur 0 -- -- 95
2019-11-26 13:00:00 13.4 13 Sur 23 Sudoeste 0 -- -- 94
2019-11-26 12:00:00 13.9 15 Sudoeste 28 Sur 0 -- -- 91
2019-11-26 11:00:00 12.7 13 Sur 23 Sur 0 -- -- 93
2019-11-26 10:00:00 12 10 Sur 21 Sur 0 -- -- 92
2019-11-26 09:00:00 11.3 8 Sudeste 18 Sur 0 -- -- 94
2019-11-26 08:00:00 11 7 Sur 13 Sur 0 -- -- 95
2019-11-26 07:00:00 10.8 6 Sur 13 Sur 0 -- -- 97
2019-11-26 06:00:00 10.5 3 Sudeste 8 Sur 0 -- -- 98
2019-11-26 05:00:00 10.5 3 Sur 9 Sur 0 -- -- 98
2019-11-26 04:00:00 10.3 2 Sudeste 6 Sudeste 0 -- -- 97
2019-11-26 03:00:00 10.7 3 Nordeste 8 Norte 0 -- -- 97
2019-11-26 02:00:00 11.4 8 Oeste 13 Oeste 0 -- -- 95
2019-11-26 01:00:00 12.2 2 Noroeste 6 Este 0 -- -- 94
2019-11-26 00:00:00 12.6 3 Sudoeste 8 Oeste 0 -- -- 94
2019-11-25 23:00:00 12.5 3 Norte 7 Norte 0 -- -- 92
2019-11-25 22:00:00 12.4 0 Calma 8 Oeste 0 -- -- 92
2019-11-25 21:00:00 12.4 4 Oeste 10 Oeste 0 -- -- 91
2019-11-25 20:00:00 12.2 7 Sudoeste 10 Sudoeste 0 -- -- 93
2019-11-25 19:00:00 13 6 Sudoeste 12 Oeste 0 -- -- 88
2019-11-25 18:00:00 15 9 Oeste 19 Sudoeste 0 -- -- 83
2019-11-25 17:00:00 15.7 14 Oeste 33 Oeste 0 -- -- 78
2019-11-25 16:00:00 16.1 18 Oeste 38 Sudoeste 0 -- -- 79
2019-11-25 15:00:00 16 27 Oeste 39 Oeste 0 -- -- 85
2019-11-25 14:00:00 14.6 18 Sudoeste 28 Sudoeste 0.2 -- -- 94
2019-11-25 13:00:00 14.2 17 Sudoeste 23 Sudoeste 0 -- -- 93
2019-11-25 12:00:00 13.3 11 Sudoeste 24 Sur 0 -- -- 94
2019-11-25 11:00:00 13.1 14 Sudoeste 27 Sudoeste 0 -- -- 94
2019-11-25 10:00:00 12 14 Sudoeste 28 Sur 0 -- -- 97
2019-11-25 09:00:00 10.9 12 Sudoeste 23 Sur 0.2 -- -- 99
2019-11-25 08:00:00 10.1 14 Sur 28 Sur 0.6 -- -- 98
2019-11-25 07:00:00 9.9 10 Sur 28 Sur 0 -- -- 96
2019-11-25 06:00:00 10.1 14 Sur 26 Sur 0.2 -- -- 94
2019-11-25 05:00:00 9.7 14 Sur 23 Sur 0 -- -- 95
2019-11-25 04:00:00 9.5 4 Sudeste 18 Sur 0.2 -- -- 96
2019-11-25 03:00:00 9.5 10 Sur 23 Sudoeste 0 -- -- 94
2019-11-25 02:00:00 9.8 12 Sur 21 Sur 0 -- -- 86
2019-11-25 01:00:00 9.6 10 Sur 21 Sur 0 -- -- 84
2019-11-25 00:00:00 9.7 12 Sur 19 Sur 0 -- -- 83
2019-11-24 23:00:00 9.3 7 Sudoeste 12 Sudoeste 0 -- -- 87
2019-11-24 22:00:00 9.9 5 Sudoeste 13 Oeste 0 -- -- 83
2019-11-24 21:00:00 10.4 11 Sudoeste 16 Oeste 0 -- -- 84
2019-11-24 20:00:00 10.3 6 Sudoeste 11 Oeste 0 -- -- 83
2019-11-24 19:00:00 10.4 5 Sudoeste 15 Oeste 0 -- -- 82
2019-11-24 18:00:00 11.1 9 Oeste 21 Oeste 0 -- -- 77
2019-11-24 17:00:00 11.7 18 Oeste 26 Oeste 0 -- -- 72
2019-11-24 16:00:00 12 13 Oeste 23 Oeste 0 -- -- 69
2019-11-24 15:00:00 11.2 14 Noroeste 25 Oeste 0 -- -- 72
2019-11-24 14:00:00 11.9 18 Oeste 28 Oeste 0 -- -- 72
2019-11-24 13:00:00 11.9 18 Oeste 33 Oeste 0 -- -- 70
2019-11-24 12:00:00 10.3 16 Oeste 24 Oeste 0 -- -- 80
2019-11-24 11:00:00 9 17 Oeste 30 Oeste 0 -- -- 89
2019-11-24 10:00:00 7.3 14 Noroeste 27 Noroeste 0 -- -- 97
2019-11-24 09:00:00 5.9 21 Noroeste 28 Noroeste 0 -- -- 98
2019-11-24 08:00:00 4.2 12 Noroeste 16 Noroeste 0 -- -- 98
2019-11-24 07:00:00 3.7 3 Oeste 8 Oeste 0 -- -- 96
2019-11-24 06:00:00 3.8 2 Noroeste 5 Noroeste 0 -- -- 93
2019-11-24 05:00:00 4.3 0 Calma 12 Noroeste 0 -- -- 92
2019-11-24 04:00:00 5.6 10 Noroeste 19 Noroeste 0 -- -- 90
2019-11-24 03:00:00 5.6 8 Noroeste 19 Noroeste 0 -- -- 91
2019-11-24 02:00:00 6 13 Noroeste 24 Oeste 0 -- -- 92
2019-11-24 01:00:00 6.4 15 Oeste 24 Oeste 0 -- -- 91
2019-11-24 00:00:00 6.5 16 Oeste 23 Oeste 0 -- -- 90
2019-11-23 23:00:00 6.8 12 Oeste 22 Oeste 0 -- -- 89
2019-11-23 22:00:00 7.2 12 Oeste 22 Oeste 0 -- -- 86
2019-11-23 21:00:00 7.9 17 Oeste 26 Oeste 0 -- -- 82
2019-11-23 20:00:00 8.5 16 Oeste 22 Oeste 0 -- -- 80
2019-11-23 19:00:00 8.6 4 Sudoeste 19 Noroeste 0 -- -- 79
2019-11-23 18:00:00 9.9 13 Oeste 36 Oeste 0 -- -- 73
2019-11-23 17:00:00 10.9 23 Oeste 39 Noroeste 0 -- -- 67
2019-11-23 16:00:00 11.7 30 Oeste 45 Oeste 0 -- -- 68
2019-11-23 15:00:00 11.4 25 Oeste 37 Noroeste 0 -- -- 65
2019-11-23 14:00:00 11.1 26 Oeste 38 Oeste 0 -- -- 67
2019-11-23 13:00:00 11 30 Noroeste 47 Oeste 0 -- -- 71
2019-11-23 12:00:00 10.3 34 Noroeste 55 Noroeste 0 -- -- 79
2019-11-23 11:00:00 9.4 34 Oeste 51 Oeste 0 -- -- 81
2019-11-23 10:00:00 8.6 35 Oeste 48 Oeste 0 -- -- 83
2019-11-23 09:00:00 7.9 26 Oeste 38 Oeste 0 -- -- 88
2019-11-23 08:00:00 7.5 22 Oeste 41 Oeste 0 -- -- 87
2019-11-23 07:00:00 7.8 28 Oeste 44 Oeste 0 -- -- 86
2019-11-23 06:00:00 8.3 26 Oeste 41 Oeste 0.2 -- -- 87
2019-11-23 05:00:00 8.4 27 Oeste 45 Oeste 0.6 -- -- 91
2019-11-23 04:00:00 8.5 36 Oeste 50 Oeste 0.4 -- -- 88
2019-11-23 03:00:00 9 34 Oeste 52 Oeste 0.4 -- -- 88
2019-11-23 02:00:00 8.9 35 Oeste 55 Oeste 1.2 -- -- 92
2019-11-23 01:00:00 9.7 26 Sudoeste 44 Sudoeste 0 -- -- 87
2019-11-23 00:00:00 9.9 22 Sudoeste 40 Sudoeste 0 -- -- 88
2019-11-22 23:00:00 10.4 27 Oeste 52 Oeste 0 -- -- 87
2019-11-22 22:00:00 10.9 26 Oeste 50 Sudoeste 0 -- -- 87
2019-11-22 21:00:00 11.1 31 Oeste 44 Oeste 0 -- -- 84
2019-11-22 20:00:00 11.3 28 Oeste 47 Oeste 0 -- -- 85
2019-11-22 19:00:00 12.3 25 Oeste 38 Oeste 0 -- -- 81
2019-11-22 18:00:00 13.2 27 Oeste 44 Oeste 0 -- -- 84
2019-11-22 17:00:00 13.6 34 Oeste 53 Oeste 6.8 -- -- 91
2019-11-22 16:00:00 13.5 31 Sudoeste 51 Sudoeste 1.2 -- -- 92
2019-11-22 15:00:00 13.4 28 Sudoeste 44 Sudoeste 1.6 -- -- 94
2019-11-22 14:00:00 12.9 24 Sudoeste 50 Sudoeste 1.6 -- -- 96
2019-11-22 13:00:00 12.6 19 Sur 39 Sudoeste 0.8 -- -- 96
2019-11-22 12:00:00 11.8 19 Sur 41 Sur 1.8 -- -- 96
2019-11-22 11:00:00 11.6 20 Sur 35 Sur 0.4 -- -- 95
2019-11-22 10:00:00 11.2 18 Sur 30 Sur 0.2 -- -- 95
2019-11-22 09:00:00 10.2 14 Sur 26 Sur 0 -- -- 96
2019-11-22 08:00:00 9.7 10 Sudoeste 19 Sudoeste 0.2 -- -- 95
2019-11-22 07:00:00 9.7 11 Sur 21 Sur 0.4 -- -- 97
2019-11-22 06:00:00 9.5 10 Sur 18 Sur 0 -- -- 97
2019-11-22 05:00:00 9.3 7 Sur 14 Sur 0 -- -- 97
2019-11-22 04:00:00 9.3 7 Sudoeste 15 Sur 0 -- -- 97
2019-11-22 03:00:00 9.3 8 Sur 15 Sur 0 -- -- 98
2019-11-22 02:00:00 9.4 6 Sur 15 Sur 0 -- -- 98
2019-11-22 01:00:00 9.5 6 Sur 11 Sur 0 -- -- 99
2019-11-22 00:00:00 9.2 6 Sur 12 Sur 0 -- -- 99
2019-11-21 23:00:00 9.1 6 Sur 13 Sur 0 -- -- 98
2019-11-21 22:00:00 9.4 8 Sudoeste 15 Sudoeste 0 -- -- 98
2019-11-21 21:00:00 9.4 8 Sudoeste 13 Sudoeste 0 -- -- 97
2019-11-21 20:00:00 10.2 7 Sur 12 Sur 0.2 -- -- 96
2019-11-21 19:00:00 10.5 6 Sur 13 Sur 0 -- -- 94
2019-11-21 18:00:00 11.1 5 Sudeste 10 Sur 0 -- -- 93
2019-11-21 17:00:00 11.4 4 Sur 10 Sudoeste 0.2 -- -- 90
2019-11-21 16:00:00 11.3 6 Sudoeste 14 Sur 0 -- -- 90
2019-11-21 15:00:00 11.1 7 Sudoeste 17 Sudoeste 0.4 -- -- 93
2019-11-21 14:00:00 10.6 7 Sur 16 Sudoeste 0.2 -- -- 95
2019-11-21 13:00:00 10.5 12 Sudoeste 23 Sudoeste 0.2 -- -- 93
2019-11-21 12:00:00 10.3 12 Sudoeste 22 Sur 0 -- -- 93
2019-11-21 11:00:00 10 12 Sudoeste 21 Sudoeste 0.2 -- -- 95
2019-11-21 10:00:00 8.9 6 Sur 17 Sur 0 -- -- 97
2019-11-21 09:00:00 8.5 8 Sur 19 Sur 0.2 -- -- 97
2019-11-21 08:00:00 8.3 11 Sur 16 Sur 0 -- -- 97
2019-11-21 07:00:00 8 8 Sur 16 Sur 0 -- -- 97
2019-11-21 06:00:00 7.9 8 Sur 18 Sur 0 -- -- 97
2019-11-21 05:00:00 7.7 7 Sur 17 Sur 0 -- -- 97
2019-11-21 04:00:00 7.8 6 Sur 18 Sur 0 -- -- 97
2019-11-21 03:00:00 7.5 9 Sur 17 Sur 0 -- -- 98
2019-11-21 02:00:00 7.4 9 Sur 17 Sudoeste 0 -- -- 97
2019-11-21 01:00:00 7.7 11 Sudoeste 17 Sur 0.2 -- -- 97
2019-11-21 00:00:00 7.7 6 Sur 19 Sur 0.2 -- -- 97
2019-11-20 23:00:00 7.6 8 Sur 21 Sur 0 -- -- 97
2019-11-20 22:00:00 7.5 9 Sur 19 Sur 0 -- -- 98
2019-11-20 21:00:00 7.5 7 Sur 17 Sur 0 -- -- 98
2019-11-20 20:00:00 7.4 10 Sur 17 Sur 0 -- -- 98
2019-11-20 19:00:00 7.6 9 Sur 19 Sur 0 -- -- 98
2019-11-20 18:00:00 7.6 11 Sudoeste 22 Sudoeste 0.2 -- -- 98
2019-11-20 17:00:00 7.7 14 Sudoeste 23 Sudoeste 0.2 -- -- 97
2019-11-20 16:00:00 7.8 13 Sur 23 Sur 0 -- -- 97
2019-11-20 15:00:00 7.2 8 Sur 17 Sudeste 0.4 -- -- 94
2019-11-20 14:00:00 6.9 9 Sudeste 17 Sudeste 0.6 -- -- 92
2019-11-20 13:00:00 5.9 10 Sur 22 Sur 0.8 -- -- 90
2019-11-20 12:00:00 5.9 17 Sur 28 Sur 2.2 -- -- 91
2019-11-20 11:00:00 6.3 9 Sudoeste 15 Sudoeste 1.2 -- -- 95
2019-11-20 10:00:00 6 6 Sur 13 Sur 0.6 -- -- 92
2019-11-20 09:00:00 5.2 6 Sur 12 Sur 0 -- -- 92
2019-11-20 08:00:00 4.8 7 Sur 13 Sur 0 -- -- 92
2019-11-20 07:00:00 4 3 Sudeste 9 Sur 0 -- -- 92
2019-11-20 06:00:00 3.6 5 Sudeste 9 Sudeste 0 -- -- 94
2019-11-20 05:00:00 4 4 Sur 10 Sur 0 -- -- 92
2019-11-20 04:00:00 4.6 8 Sur 14 Sur 0 -- -- 90
2019-11-20 03:00:00 4.4 8 Sur 13 Sur 0 -- -- 94
2019-11-20 02:00:00 3.5 2 Sur 5 Sudoeste 0 -- -- 93
2019-11-20 01:00:00 4.3 2 Sudoeste 4 Sur 0 -- -- 92
2019-11-20 00:00:00 5.7 0 Calma 5 Sur 0 -- -- 89
2019-11-19 23:00:00 6.8 0 Calma 9 Sur 0 -- -- 87
2019-11-19 22:00:00 7.3 6 Sur 12 Sur 0 -- -- 83
2019-11-19 21:00:00 6.8 6 Sur 9 Sur 0 -- -- 84
2019-11-19 20:00:00 6.7 0 Calma 2 Sudoeste 0 -- -- 87
2019-11-19 19:00:00 7.9 0 Calma 4 Sudeste 0 -- -- 82
2019-11-19 18:00:00 9.8 0 Calma 7 Oeste 0 -- -- 66
2019-11-19 17:00:00 11.2 5 Oeste 9 Sudoeste 0 -- -- 58
2019-11-19 16:00:00 12 4 Sudoeste 12 Oeste 0 -- -- 55
2019-11-19 15:00:00 11.2 7 Oeste 18 Oeste 0 -- -- 62
2019-11-19 14:00:00 10.2 8 Sudoeste 13 Sudoeste 0 -- -- 72
2019-11-19 13:00:00 9.7 3 Sur 9 Sur 0 -- -- 74
2019-11-19 12:00:00 8.1 4 Sur 9 Sur 0 -- -- 83
2019-11-19 11:00:00 6.4 5 Sur 8 Sur 0 -- -- 90
2019-11-19 10:00:00 4.3 3 Sur 8 Sur 0 -- -- 98
2019-11-19 09:00:00 2.6 0 Calma 6 Sur 0 -- -- 98
2019-11-19 08:00:00 2.3 0 Calma 6 Sur 0 -- -- 98
2019-11-19 07:00:00 1.9 2 Sur 4 Sudeste 0 -- -- 97
2019-11-19 06:00:00 1.4 0 Calma 3 Sudoeste 0 -- -- 97
2019-11-19 05:00:00 1.8 3 Oeste 5 Oeste 0 -- -- 97
2019-11-19 04:00:00 1.9 2 Sudoeste 4 Sudeste 0 -- -- 95
2019-11-19 03:00:00 2.9 3 Sudeste 5 Sudeste 0 -- -- 97
2019-11-19 02:00:00 2.4 3 Sudoeste 5 Sudoeste 0 -- -- 95
2019-11-19 01:00:00 2.5 0 Calma 2 Oeste 0 -- -- 94
2019-11-19 00:00:00 3.5 0 Calma 2 Oeste 0 -- -- 92
2019-11-18 23:00:00 4.4 3 Sur 4 Sur 0 -- -- 92
2019-11-18 22:00:00 4.3 0 Calma 4 Oeste 0 -- -- 91
2019-11-18 21:00:00 5.2 3 Oeste 5 Oeste 0 -- -- 90
2019-11-18 20:00:00 6.7 0 Calma 7 Noroeste 0 -- -- 86
2019-11-18 19:00:00 8.6 4 Norte 6 Nordeste 0 -- -- 77
2019-11-18 18:00:00 10.1 3 Norte 10 Noroeste 0 -- -- 68
2019-11-18 17:00:00 12 5 Norte 17 Norte 0 -- -- 55
2019-11-18 16:00:00 12 10 Noroeste 21 Norte 0 -- -- 60
2019-11-18 15:00:00 12 9 Norte 20 Norte 0 -- -- 56
2019-11-18 14:00:00 11.6 9 Noroeste 20 Noroeste 0 -- -- 58
2019-11-18 13:00:00 10.6 9 Noroeste 15 Noroeste 0 -- -- 66
2019-11-18 12:00:00 9.3 8 Norte 13 Noroeste 0 -- -- 76
2019-11-18 11:00:00 7.6 11 Noroeste 20 Noroeste 0 -- -- 83
2019-11-18 10:00:00 6 17 Noroeste 22 Noroeste 0 -- -- 89
2019-11-18 09:00:00 4.4 14 Noroeste 20 Noroeste 0 -- -- 94
2019-11-18 08:00:00 4.1 9 Noroeste 27 Noroeste 0 -- -- 93
2019-11-18 07:00:00 4.5 21 Noroeste 28 Noroeste 0 -- -- 93
2019-11-18 06:00:00 4.8 15 Noroeste 27 Noroeste 0 -- -- 92
2019-11-18 05:00:00 5.4 11 Noroeste 26 Noroeste 0 -- -- 91
2019-11-18 04:00:00 6.1 11 Noroeste 24 Noroeste 0 -- -- 92
2019-11-18 03:00:00 7.5 21 Noroeste 30 Noroeste 0 -- -- 91
2019-11-18 02:00:00 9.2 20 Noroeste 36 Noroeste 0.6 -- -- 87
2019-11-18 01:00:00 10.3 19 Noroeste 37 Noroeste 1 -- -- 94
2019-11-18 00:00:00 10.7 20 Oeste 30 Oeste 1 -- -- 96
2019-11-17 23:00:00 10.8 23 Oeste 48 Oeste 0.4 -- -- 95
2019-11-17 22:00:00 10.9 29 Oeste 42 Oeste 0 -- -- 94
2019-11-17 21:00:00 11.2 28 Oeste 45 Sudoeste 0.6 -- -- 90
2019-11-17 20:00:00 11.4 28 Oeste 45 Sudoeste 2.8 -- -- 96
2019-11-17 19:00:00 10.4 21 Sudoeste 31 Sudoeste 3.6 -- -- 98
2019-11-17 18:00:00 9.9 14 Sudoeste 27 Sudoeste 1 -- -- 96
2019-11-17 17:00:00 10.4 13 Sudoeste 31 Sudoeste 0 -- -- 95
2019-11-17 16:00:00 10.3 17 Sudoeste 28 Sudoeste 0.2 -- -- 97
2019-11-17 15:00:00 10.1 21 Sudoeste 32 Sudoeste 1 -- -- 96
2019-11-17 14:00:00 10 20 Sudoeste 33 Sudoeste 1 -- -- 97
2019-11-17 13:00:00 8.3 18 Sudoeste 31 Sur 0.2 -- -- 97
2019-11-17 12:00:00 6.8 16 Sur 28 Sur 0.2 -- -- 98
2019-11-17 11:00:00 5.6 15 Sur 27 Sudoeste 0.4 -- -- 97
2019-11-17 10:00:00 4.6 3 Sudeste 15 Sur 0.4 -- -- 97
2019-11-17 09:00:00 4.3 9 Sur 17 Sur 0.2 -- -- 96
2019-11-17 08:00:00 3.7 5 Sur 15 Sur 0.4 -- -- 93
2019-11-17 07:00:00 3.8 7 Sur 14 Sur 0 -- -- 86
2019-11-17 06:00:00 3.2 6 Sudoeste 12 Sudoeste 0 -- -- 85
2019-11-17 05:00:00 2.5 4 Sur 13 Sudoeste 0 -- -- 85
2019-11-17 04:00:00 2.1 2 Sur 11 Sudoeste 0 -- -- 87
2019-11-17 03:00:00 2.6 6 Sur 14 Sudoeste 0 -- -- 82
2019-11-17 02:00:00 3.7 9 Oeste 17 Noroeste 0 -- -- 80
2019-11-17 01:00:00 3.7 4 Norte 18 Oeste 0 -- -- 76
2019-11-17 00:00:00 4.4 12 Noroeste 16 Oeste 0 -- -- 73
2019-11-16 23:00:00 4.3 9 Oeste 13 Oeste 0 -- -- 72
2019-11-16 22:00:00 4.1 4 Sudoeste 6 Sur 0 -- -- 66
2019-11-16 21:00:00 4.4 4 Sur 7 Sur 0 -- -- 67
2019-11-16 20:00:00 5.4 3 Sur 9 Sudoeste 0 -- -- 63
2019-11-16 19:00:00 6.9 3 Sudoeste 18 Noroeste 0 -- -- 57
2019-11-16 18:00:00 9 14 Noroeste 26 Noroeste 0 -- -- 49
2019-11-16 17:00:00 11.2 18 Oeste 26 Oeste 0 -- -- 42
2019-11-16 16:00:00 11.7 17 Noroeste 24 Oeste 0 -- -- 41
2019-11-16 15:00:00 11.5 14 Noroeste 24 Sudoeste 0 -- -- 41
2019-11-16 14:00:00 10.9 9 Sudoeste 19 Sudoeste 0 -- -- 46
2019-11-16 13:00:00 9.9 5 Sudoeste 13 Oeste 0 -- -- 52
2019-11-16 12:00:00 8.4 4 Sudoeste 9 Sudoeste 0 -- -- 59
2019-11-16 11:00:00 5.8 4 Noroeste 16 Noroeste 0 -- -- 71
2019-11-16 10:00:00 3.7 8 Oeste 13 Oeste 0 -- -- 83
2019-11-16 09:00:00 -0.3 0 Calma 8 Oeste 0 -- -- 94
2019-11-16 08:00:00 -1.8 2 Norte 9 Oeste 0 -- -- 91
2019-11-16 07:00:00 -1 0 Calma 12 Noroeste 0 -- -- 91
2019-11-16 06:00:00 0.2 0 Calma 5 Sudeste 0 -- -- 86
2019-11-16 05:00:00 -0.2 2 Sur 11 Oeste 0 -- -- 87
2019-11-16 04:00:00 -0.3 10 Noroeste 13 Noroeste 0 -- -- 84
2019-11-16 03:00:00 0.2 12 Noroeste 15 Noroeste 0 -- -- 81
2019-11-16 02:00:00 0.3 4 Noroeste 9 Noroeste 0 -- -- 77
2019-11-16 01:00:00 0.3 5 Oeste 8 Noroeste 0 -- -- 81
2019-11-16 00:00:00 0.9 6 Oeste 12 Noroeste 0 -- -- 78
2019-11-15 23:00:00 2.3 7 Noroeste 9 Noroeste 0 -- -- 74
2019-11-15 22:00:00 3 7 Noroeste 11 Noroeste 0 -- -- 71
2019-11-15 21:00:00 4.8 5 Noroeste 8 Noroeste 0 -- -- 66
2019-11-15 20:00:00 5.1 4 Oeste 5 Noroeste 0 -- -- 69
2019-11-15 19:00:00 6.2 0 Calma 3 Sudoeste 0 -- -- 67
2019-11-15 18:00:00 6.9 2 Oeste 25 Noroeste 0 -- -- 62
2019-11-15 17:00:00 8.7 17 Noroeste 27 Noroeste 0 -- -- 54
2019-11-15 16:00:00 8.9 17 Noroeste 28 Noroeste 0 -- -- 55
2019-11-15 15:00:00 8.6 19 Noroeste 31 Noroeste 0 -- -- 57
2019-11-15 14:00:00 8.2 16 Noroeste 30 Oeste 0 -- -- 59
2019-11-15 13:00:00 7 19 Noroeste 31 Noroeste 0 -- -- 63
2019-11-15 12:00:00 7 20 Noroeste 32 Noroeste 0 -- -- 63
2019-11-15 11:00:00 6.1 23 Noroeste 34 Noroeste 0 -- -- 67
2019-11-15 10:00:00 5.2 21 Noroeste 29 Noroeste 0 -- -- 78
2019-11-15 09:00:00 3.3 11 Noroeste 26 Oeste 0 -- -- 85
2019-11-15 08:00:00 2.5 11 Noroeste 19 Oeste 0 -- -- 88
2019-11-15 07:00:00 2.4 9 Noroeste 21 Oeste 0 -- -- 88
2019-11-15 06:00:00 3.3 15 Noroeste 33 Oeste 0 -- -- 86
2019-11-15 05:00:00 3.5 20 Oeste 33 Oeste 0 -- -- 86
2019-11-15 04:00:00 3.9 23 Oeste 38 Oeste 0 -- -- 85
2019-11-15 03:00:00 4.1 10 Oeste 31 Oeste 0 -- -- 82
2019-11-15 02:00:00 4.9 21 Oeste 39 Oeste 0 -- -- 78
2019-11-15 01:00:00 5.5 28 Oeste 40 Oeste 0 -- -- 78
2019-11-15 00:00:00 6.2 23 Oeste 37 Oeste 0 -- -- 76
2019-11-14 23:00:00 6.8 24 Oeste 44 Oeste 0 -- -- 78
2019-11-14 22:00:00 7.2 26 Oeste 45 Oeste 0 -- -- 81
2019-11-14 21:00:00 7.4 28 Oeste 48 Oeste 0 -- -- 78
2019-11-14 20:00:00 8 32 Oeste 47 Oeste 0 -- -- 70
2019-11-14 19:00:00 8.4 30 Oeste 47 Oeste 0 -- -- 69
2019-11-14 18:00:00 9.2 31 Oeste 54 Oeste 0 -- -- 67
2019-11-14 17:00:00 9.7 33 Oeste 53 Noroeste 0 -- -- 61
2019-11-14 16:00:00 10.3 35 Oeste 51 Oeste 0 -- -- 62
2019-11-14 15:00:00 10.3 24 Oeste 49 Oeste 0 -- -- 67
2019-11-14 14:00:00 10.1 35 Oeste 49 Oeste 0 -- -- 72
2019-11-14 13:00:00 9.4 31 Oeste 43 Noroeste 0 -- -- 76
2019-11-14 12:00:00 8.3 26 Noroeste 56 Noroeste 0.4 -- -- 88
2019-11-14 11:00:00 9.4 30 Oeste 53 Oeste 0.4 -- -- 86
2019-11-14 10:00:00 9.3 31 Oeste 49 Oeste 0.4 -- -- 93
2019-11-14 09:00:00 8.9 30 Sudoeste 47 Sudoeste 0 -- -- 93
2019-11-14 08:00:00 8.6 27 Sudoeste 42 Sudoeste 0 -- -- 91
2019-11-14 07:00:00 7.9 19 Sudoeste 27 Sudoeste 0 -- -- 92
2019-11-14 06:00:00 7.9 16 Oeste 27 Sudoeste 0 -- -- 89
2019-11-14 05:00:00 7.9 21 Oeste 31 Oeste 0 -- -- 89
2019-11-14 04:00:00 7.6 19 Oeste 28 Oeste 0 -- -- 89
2019-11-14 03:00:00 7.6 14 Oeste 33 Oeste 0 -- -- 89
2019-11-14 02:00:00 8.3 20 Oeste 38 Noroeste 0 -- -- 87
2019-11-14 01:00:00 9.2 26 Oeste 42 Oeste 0 -- -- 86
2019-11-14 00:00:00 10.1 27 Oeste 45 Oeste 0 -- -- 87
2019-11-13 23:00:00 10.9 29 Oeste 40 Oeste 0 -- -- 86
2019-11-13 22:00:00 11.8 19 Oeste 33 Oeste 0 -- -- 83
2019-11-13 21:00:00 12.5 21 Oeste 29 Oeste 0 -- -- 79
2019-11-13 20:00:00 12.7 15 Oeste 24 Oeste 0 -- -- 75
2019-11-13 19:00:00 13.9 14 Oeste 26 Oeste 0 -- -- 71
2019-11-13 18:00:00 15.5 18 Oeste 30 Oeste 0 -- -- 64
2019-11-13 17:00:00 17.2 18 Oeste 33 Oeste 0 -- -- 60
2019-11-13 16:00:00 17.7 21 Oeste 31 Oeste 0 -- -- 58
2019-11-13 15:00:00 17.7 15 Oeste 35 Oeste 0 -- -- 59
2019-11-13 14:00:00 17.7 21 Oeste 35 Oeste 0 -- -- 61
2019-11-13 13:00:00 16.3 25 Oeste 41 Oeste 0 -- -- 68
2019-11-13 12:00:00 15 26 Oeste 45 Oeste 0 -- -- 78
2019-11-13 11:00:00 13 19 Oeste 30 Oeste 0.2 -- -- 95
2019-11-13 10:00:00 12 20 Oeste 35 Oeste 0 -- -- 95
2019-11-13 09:00:00 11.6 24 Oeste 38 Oeste 0 -- -- 96
2019-11-13 08:00:00 11.3 28 Oeste 43 Oeste 0 -- -- 95
2019-11-13 07:00:00 11.1 27 Oeste 44 Oeste 0 -- -- 95
2019-11-13 06:00:00 11.2 26 Oeste 42 Oeste 0 -- -- 90
2019-11-13 05:00:00 11 21 Oeste 35 Sudoeste 0 -- -- 90
2019-11-13 04:00:00 10.8 23 Oeste 32 Oeste 0 -- -- 93
2019-11-13 03:00:00 10.6 18 Oeste 29 Oeste 0 -- -- 92
2019-11-13 02:00:00 10.9 15 Oeste 29 Oeste 0 -- -- 88
2019-11-13 01:00:00 11.5 20 Oeste 43 Noroeste 0 -- -- 81
2019-11-13 00:00:00 11.6 22 Oeste 36 Oeste 0 -- -- 80
2019-11-12 23:00:00 11.2 17 Oeste 26 Oeste 0 -- -- 79
2019-11-12 22:00:00 10.4 10 Oeste 30 Oeste 0 -- -- 75
2019-11-12 21:00:00 10.3 8 Oeste 26 Oeste 0 -- -- 67
2019-11-12 20:00:00 10.4 10 Oeste 14 Oeste 0 -- -- 62
2019-11-12 19:00:00 11.6 9 Oeste 21 Noroeste 0 -- -- 56
2019-11-12 18:00:00 13.1 21 Noroeste 30 Noroeste 0 -- -- 49
2019-11-12 17:00:00 14.3 22 Noroeste 33 Noroeste 0 -- -- 44
2019-11-12 16:00:00 14.8 19 Noroeste 32 Noroeste 0 -- -- 42
2019-11-12 15:00:00 14.3 17 Noroeste 29 Noroeste 0 -- -- 44
2019-11-12 14:00:00 14 16 Noroeste 26 Noroeste 0 -- -- 49
2019-11-12 13:00:00 13.6 18 Noroeste 27 Norte 0 -- -- 54
2019-11-12 12:00:00 11.3 11 Noroeste 20 Noroeste 0 -- -- 70
2019-11-12 11:00:00 9.8 10 Oeste 17 Noroeste 0 -- -- 80
2019-11-12 10:00:00 7.6 9 Noroeste 13 Oeste 0 -- -- 99
2019-11-12 09:00:00 6 0 Calma 3 Oeste 0 -- -- 99
2019-11-12 08:00:00 4.5 0 Calma 4 Sur 0 -- -- 99
2019-11-12 07:00:00 4 2 Sudoeste 7 Sur 0.2 -- -- 98
2019-11-12 06:00:00 4.2 2 Sur 5 Sur 0 -- -- 98
2019-11-12 05:00:00 4.4 0 Calma 5 Oeste 0 -- -- 98
2019-11-12 04:00:00 4.8 3 Oeste 4 Sudoeste 0 -- -- 98
2019-11-12 03:00:00 6.4 3 Noroeste 10 Noroeste 0 -- -- 98
2019-11-12 02:00:00 7 8 Noroeste 12 Noroeste 0 -- -- 95
2019-11-12 01:00:00 8.1 6 Norte 9 Noroeste 0 -- -- 98
2019-11-12 00:00:00 7.4 0 Calma 5 Sudoeste 0 -- -- 96
2019-11-11 23:00:00 8.4 3 Sur 9 Oeste 0 -- -- 97
2019-11-11 22:00:00 9 6 Noroeste 8 Noroeste 0 -- -- 97
2019-11-11 21:00:00 8.9 7 Oeste 9 Noroeste 0 -- -- 92
2019-11-11 20:00:00 10.6 8 Noroeste 11 Noroeste 0 -- -- 90
2019-11-11 19:00:00 12.5 8 Noroeste 19 Noroeste 0 -- -- 84
2019-11-11 18:00:00 13.9 14 Noroeste 24 Noroeste 0 -- -- 81
2019-11-11 17:00:00 14.2 20 Noroeste 26 Noroeste 0 -- -- 81
2019-11-11 16:00:00 13.6 8 Oeste 23 Oeste 0 -- -- 84
2019-11-11 15:00:00 13.1 18 Oeste 24 Oeste 0 -- -- 86
2019-11-11 14:00:00 11.6 15 Oeste 21 Oeste 0 -- -- 91
2019-11-11 13:00:00 11 12 Oeste 18 Oeste 0 -- -- 91
2019-11-11 12:00:00 10.1 6 Noroeste 9 Noroeste 0 -- -- 94
2019-11-11 11:00:00 9.7 0 Calma 9 Oeste 0 -- -- 91
2019-11-11 10:00:00 9.3 3 Sudoeste 6 Sur 0 -- -- 88
2019-11-11 09:00:00 8.4 3 Sudoeste 5 Sudoeste 0 -- -- 90
2019-11-11 08:00:00 7.8 0 Calma 3 Sudeste 0 -- -- 90
2019-11-11 07:00:00 7.8 2 Oeste 12 Noroeste 0 -- -- 89
2019-11-11 06:00:00 8.2 12 Noroeste 16 Noroeste 0 -- -- 87
2019-11-11 05:00:00 8.3 6 Noroeste 18 Noroeste 0 -- -- 87
2019-11-11 04:00:00 8.4 10 Noroeste 15 Noroeste 0 -- -- 85
2019-11-11 03:00:00 8.4 8 Noroeste 27 Noroeste 0 -- -- 84
2019-11-11 02:00:00 8.7 19 Noroeste 29 Noroeste 0 -- -- 81
2019-11-11 01:00:00 8.9 23 Noroeste 32 Noroeste 0 -- -- 77
2019-11-11 00:00:00 9 21 Noroeste 35 Noroeste 0 -- -- 75